createdAt,value
2022-09-20T00:01:07.798Z,83.09
2022-09-20T00:03:36.717Z,83.23
2022-09-20T00:06:04.995Z,83.04
2022-09-20T00:08:31.823Z,83.71
2022-09-20T00:11:02.329Z,83.30
2022-09-20T00:13:30.125Z,82.63
2022-09-20T00:15:56.777Z,82.62
2022-09-20T00:18:23.948Z,81.83
2022-09-20T00:20:51.057Z,81.33
2022-09-20T00:23:18.110Z,80.82
2022-09-20T00:25:44.743Z,80.83
2022-09-20T00:28:11.648Z,81.21
2022-09-20T00:30:39.312Z,81.13
2022-09-20T00:33:06.031Z,82.16
2022-09-20T00:35:33.142Z,81.76
2022-09-20T00:37:59.736Z,81.30
2022-09-20T00:40:30.442Z,80.94
2022-09-20T00:42:57.161Z,81.07
2022-09-20T00:45:26.645Z,81.45
2022-09-20T00:47:59.176Z,81.53
2022-09-20T00:50:36.950Z,82.11
2022-09-20T00:53:07.993Z,82.91
2022-09-20T00:55:39.301Z,82.65
2022-09-20T00:58:06.685Z,82.26
2022-09-20T01:00:33.407Z,82.32
2022-09-20T01:03:03.573Z,82.87
2022-09-20T01:05:30.332Z,84.03
2022-09-20T01:07:57.200Z,83.53
2022-09-20T01:10:23.862Z,83.38
2022-09-20T01:12:52.149Z,83.29
2022-09-20T01:15:19.201Z,83.96
2022-09-20T01:17:48.535Z,83.51
2022-09-20T01:20:22.823Z,83.18
2022-09-20T01:23:01.169Z,82.79
2022-09-20T01:26:09.151Z,82.52
2022-09-20T01:28:36.200Z,81.66
2022-09-20T01:31:17.443Z,81.42
2022-09-20T01:33:54.085Z,81.23
2022-09-20T01:36:58.909Z,80.64
2022-09-20T01:39:37.530Z,80.61
2022-09-20T01:42:09.602Z,80.67
2022-09-20T01:44:48.608Z,80.25
2022-09-20T01:47:27.533Z,80.64
2022-09-20T01:50:07.721Z,80.58
2022-09-20T01:53:01.661Z,80.01
2022-09-20T01:55:54.177Z,80.71
2022-09-20T01:59:01.908Z,81.55
2022-09-20T02:01:53.555Z,82.62
2022-09-20T02:04:42.075Z,81.12
2022-09-20T02:07:33.229Z,81.41
2022-09-20T02:10:08.797Z,81.94
2022-09-20T02:12:54.469Z,82.32
2022-09-20T02:15:39.275Z,82.35
2022-09-20T02:18:43.956Z,81.85
2022-09-20T02:21:30.410Z,81.31
2022-09-20T02:24:15.668Z,81.38
2022-09-20T02:27:19.344Z,81.21
2022-09-20T02:29:51.708Z,82.03
2022-09-20T02:32:25.064Z,82.38
2022-09-20T02:35:06.331Z,82.70
2022-09-20T02:37:54.324Z,82.86
2022-09-20T02:40:31.722Z,82.76
2022-09-20T02:43:19.664Z,83.14
2022-09-20T02:46:18.226Z,82.81
2022-09-20T02:48:44.856Z,82.88
2022-09-20T02:51:18.538Z,82.96
2022-09-20T02:54:23.637Z,83.59
2022-09-20T02:57:27.028Z,83.95
2022-09-20T02:59:58.769Z,84.56
2022-09-20T03:02:51.449Z,84.29
2022-09-20T03:05:33.321Z,84.26
2022-09-20T03:08:22.090Z,84.80
2022-09-20T03:11:02.452Z,85.12
2022-09-20T03:13:53.511Z,85.37
2022-09-20T03:16:51.930Z,85.07
2022-09-20T03:19:54.830Z,84.19
2022-09-20T03:22:30.152Z,84.67
2022-09-20T03:25:17.894Z,85.45
2022-09-20T03:28:05.545Z,85.39
2022-09-20T03:31:00.136Z,85.46
2022-09-20T03:33:51.393Z,85.44
2022-09-20T03:36:32.770Z,85.66
2022-09-20T03:39:14.742Z,86.36
2022-09-20T03:41:59.925Z,85.52
2022-09-20T03:44:42.565Z,84.61
2022-09-20T03:47:25.561Z,84.34
2022-09-20T03:50:11.346Z,84.73
2022-09-20T03:52:42.476Z,84.71
2022-09-20T03:55:31.213Z,85.06
2022-09-20T03:57:57.770Z,85.68
2022-09-20T04:00:30.261Z,85.96
2022-09-20T04:03:19.727Z,85.54
2022-09-20T04:06:34.520Z,84.57
2022-09-20T04:09:22.831Z,83.95
2022-09-20T04:12:04.696Z,83.83
2022-09-20T04:14:43.197Z,83.61
2022-09-20T04:17:31.470Z,83.77
2022-09-20T04:20:07.850Z,83.69
2022-09-20T04:22:35.059Z,83.90
2022-09-20T04:25:06.328Z,83.52
2022-09-20T04:27:43.031Z,84.05
2022-09-20T04:30:22.652Z,84.01
2022-09-20T04:33:15.468Z,84.57
2022-09-20T04:36:14.522Z,84.04
2022-09-20T04:38:41.622Z,83.90
2022-09-20T04:41:52.901Z,84.41
2022-09-20T04:44:22.433Z,84.38
2022-09-20T04:47:10.348Z,84.86
2022-09-20T04:50:06.327Z,85.21
2022-09-20T04:52:34.529Z,85.51
2022-09-20T04:55:10.375Z,85.95
2022-09-20T04:57:46.051Z,85.48
2022-09-20T05:00:17.092Z,85.49
2022-09-20T05:02:58.603Z,85.87
2022-09-20T05:05:31.165Z,86.36
2022-09-20T05:08:10.070Z,86.22
2022-09-20T05:10:40.041Z,85.85
2022-09-20T05:13:38.442Z,86.08
2022-09-20T05:16:07.903Z,86.06
2022-09-20T05:18:56.241Z,85.94
2022-09-20T05:21:47.680Z,85.37
2022-09-20T05:24:47.360Z,85.25
2022-09-20T05:27:48.526Z,85.59
2022-09-20T05:30:26.545Z,85.85
2022-09-20T05:33:10.294Z,86.45
2022-09-20T05:35:44.963Z,85.57
2022-09-20T05:38:32.766Z,84.44
2022-09-20T05:41:19.037Z,84.74
2022-09-20T05:43:55.829Z,85.62
2022-09-20T05:46:50.301Z,85.84
2022-09-20T05:49:50.610Z,86.76
2022-09-20T05:52:43.222Z,87.35
2022-09-20T05:55:38.671Z,86.99
2022-09-20T05:58:39.036Z,86.57
2022-09-20T06:01:17.667Z,86.48
2022-09-20T06:03:49.090Z,86.36
2022-09-20T06:06:53.461Z,85.54
2022-09-20T06:09:27.344Z,85.75
2022-09-20T06:11:53.878Z,86.44
2022-09-20T06:14:34.964Z,85.93
2022-09-20T06:17:23.081Z,85.66
2022-09-20T06:19:53.325Z,85.54
2022-09-20T06:22:29.973Z,85.34
2022-09-20T06:25:04.291Z,85.93
2022-09-20T06:27:35.672Z,85.77
2022-09-20T06:30:06.012Z,85.52
2022-09-20T06:32:34.807Z,85.63
2022-09-20T06:35:02.672Z,86.00
2022-09-20T06:38:10.656Z,86.59
2022-09-20T06:41:03.673Z,86.02
2022-09-20T06:43:31.569Z,86.00
2022-09-20T06:45:58.755Z,85.59
2022-09-20T06:48:25.502Z,86.46
2022-09-20T06:50:52.453Z,87.47
2022-09-20T06:53:26.784Z,87.19
2022-09-20T06:55:53.651Z,87.46
2022-09-20T06:58:20.437Z,87.09
2022-09-20T07:00:47.188Z,87.30
2022-09-20T07:03:14.144Z,88.63
2022-09-20T07:05:40.834Z,89.23
2022-09-20T07:08:07.472Z,90.66
2022-09-20T07:10:34.126Z,92.37
2022-09-20T07:13:02.160Z,91.65
2022-09-20T07:15:30.898Z,91.42
2022-09-20T07:17:57.534Z,91.82
2022-09-20T07:20:24.354Z,92.48
2022-09-20T07:22:51.109Z,91.90
2022-09-20T07:25:18.381Z,92.59
2022-09-20T07:27:46.555Z,91.90
2022-09-20T07:30:14.807Z,91.80
2022-09-20T07:32:41.783Z,90.29
2022-09-20T07:35:10.158Z,90.00
2022-09-20T07:37:37.409Z,89.25
2022-09-20T07:40:14.772Z,89.50
2022-09-20T07:42:41.506Z,89.74
2022-09-20T07:45:08.560Z,90.83
2022-09-20T07:47:35.647Z,92.03
2022-09-20T07:50:03.432Z,92.70
2022-09-20T07:52:30.060Z,93.55
2022-09-20T07:54:56.680Z,92.75
2022-09-20T07:57:23.536Z,92.14
2022-09-20T07:59:50.192Z,91.72
2022-09-20T08:02:17.068Z,91.65
2022-09-20T08:04:44.118Z,91.25
2022-09-20T08:07:10.984Z,91.59
2022-09-20T08:09:37.621Z,91.24
2022-09-20T08:14:52.534Z,88.47
2022-09-20T08:17:19.677Z,87.67
2022-09-20T08:19:46.398Z,86.18
2022-09-20T08:22:13.197Z,84.16
2022-09-20T08:24:39.984Z,84.57
2022-09-20T08:27:06.590Z,81.87
2022-09-20T08:29:33.218Z,74.71
2022-09-20T08:32:01.632Z,75.02
2022-09-20T08:34:28.377Z,77.52
2022-09-20T08:36:56.676Z,76.58
2022-09-20T08:42:28.637Z,74.10
2022-09-20T08:45:05.945Z,73.46
2022-09-20T08:47:38.361Z,71.66
2022-09-20T08:50:09.840Z,70.25
2022-09-20T08:52:40.302Z,72.90
2022-09-20T08:55:18.708Z,68.30
2022-09-20T08:57:50.991Z,66.47
2022-09-20T09:00:21.176Z,64.12
2022-09-20T09:02:50.652Z,62.01
2022-09-20T09:05:32.108Z,60.74
2022-09-20T09:08:00.861Z,59.92
2022-09-20T09:10:54.900Z,60.94
2022-09-20T09:13:27.530Z,57.80
2022-09-20T09:16:00.356Z,57.84
2022-09-20T09:18:32.713Z,58.53
2022-09-20T09:21:00.285Z,57.73
2022-09-20T09:23:28.017Z,56.04
2022-09-20T09:25:55.453Z,54.33
2022-09-20T09:28:26.814Z,54.48
2022-09-20T09:30:54.312Z,53.24
2022-09-20T09:33:31.545Z,53.38
2022-09-20T09:36:03.838Z,54.95
2022-09-20T09:38:32.825Z,51.09
2022-09-20T09:41:01.890Z,50.81
2022-09-20T09:43:35.440Z,51.25
2022-09-20T09:46:23.298Z,50.95
2022-09-20T09:49:12.429Z,51.66
2022-09-20T09:51:42.523Z,51.32
2022-09-20T09:54:17.078Z,50.54
2022-09-20T09:56:49.450Z,50.92
2022-09-20T09:59:40.500Z,50.73
2022-09-20T10:02:34.186Z,50.13
2022-09-20T10:05:16.093Z,48.91
2022-09-20T10:08:07.974Z,50.64
2022-09-20T10:10:41.601Z,47.79
2022-09-20T10:13:11.072Z,47.99
2022-09-20T10:15:49.465Z,47.96
2022-09-20T10:18:25.014Z,47.84
2022-09-20T10:21:10.220Z,47.67
2022-09-20T10:24:04.053Z,46.18
2022-09-20T10:26:44.438Z,47.19
2022-09-20T10:29:29.578Z,46.33
2022-09-20T10:32:05.101Z,46.68
2022-09-20T10:34:46.929Z,48.05
2022-09-20T10:37:25.356Z,47.92
2022-09-20T10:40:05.026Z,48.12
2022-09-20T10:43:06.393Z,46.89
2022-09-20T10:46:14.089Z,45.58
2022-09-20T10:48:33.801Z,44.43
2022-09-20T10:51:19.463Z,46.38
2022-09-20T10:54:10.752Z,46.37
2022-09-20T10:56:40.685Z,46.49
2022-09-20T10:59:12.923Z,46.71
2022-09-20T11:02:01.890Z,44.26
2022-09-20T11:05:08.564Z,45.15
2022-09-20T11:07:58.923Z,44.72
2022-09-20T11:10:36.513Z,46.15
2022-09-20T11:13:28.056Z,46.42
2022-09-20T11:16:01.060Z,45.70
2022-09-20T11:18:59.294Z,46.67
2022-09-20T11:21:34.353Z,45.70
2022-09-20T11:24:24.470Z,45.14
2022-09-20T11:26:53.674Z,43.85
2022-09-20T11:29:22.910Z,44.63
2022-09-20T11:31:53.287Z,44.50
2022-09-20T11:34:40.313Z,46.03
2022-09-20T11:37:07.026Z,45.95
2022-09-20T11:39:42.871Z,45.93
2022-09-20T11:42:16.848Z,45.28
2022-09-20T11:44:43.721Z,45.12
2022-09-20T11:47:53.346Z,45.67
2022-09-20T11:50:45.323Z,45.13
2022-09-20T11:53:34.469Z,42.33
2022-09-20T11:56:26.280Z,42.22
2022-09-20T11:58:59.110Z,41.97
2022-09-20T12:01:33.137Z,43.19
2022-09-20T12:04:30.674Z,43.19
2022-09-20T12:07:18.041Z,41.40
2022-09-20T12:09:59.596Z,44.60
2022-09-20T12:12:39.480Z,45.17
2022-09-20T12:15:22.544Z,45.34
2022-09-20T12:17:49.806Z,44.80
2022-09-20T12:20:42.601Z,44.41
2022-09-20T12:23:43.359Z,43.89
2022-09-20T12:26:18.936Z,43.73
2022-09-20T12:28:52.771Z,43.97
2022-09-20T12:31:22.034Z,44.79
2022-09-20T12:34:10.492Z,45.13
2022-09-20T12:36:43.273Z,45.19
2022-09-20T12:39:15.155Z,43.94
2022-09-20T12:42:28.299Z,43.62
2022-09-20T12:45:04.518Z,44.40
2022-09-20T12:47:35.637Z,43.87
2022-09-20T12:50:23.568Z,44.74
2022-09-20T12:53:00.743Z,44.71
2022-09-20T12:55:27.551Z,45.24
2022-09-20T12:57:58.617Z,44.56
2022-09-20T13:00:36.403Z,45.59
2022-09-20T13:03:36.438Z,44.96
2022-09-20T13:06:11.108Z,45.25
2022-09-20T13:08:51.941Z,43.93
2022-09-20T13:11:30.461Z,44.29
2022-09-20T13:14:06.277Z,44.44
2022-09-20T13:16:54.844Z,43.70
2022-09-20T13:19:28.766Z,44.18
2022-09-20T13:22:14.360Z,44.66
2022-09-20T13:24:45.182Z,44.29
2022-09-20T13:27:42.633Z,44.40
2022-09-20T13:30:28.905Z,44.40
2022-09-20T13:32:55.601Z,44.48
2022-09-20T13:35:24.136Z,44.50
2022-09-20T13:37:54.469Z,44.44
2022-09-20T13:40:24.719Z,46.11
2022-09-20T13:43:12.984Z,45.63
2022-09-20T13:45:42.459Z,47.18
2022-09-20T13:48:09.608Z,47.95
2022-09-20T13:50:42.009Z,47.75
2022-09-20T13:53:33.266Z,47.72
2022-09-20T13:56:10.513Z,48.40
2022-09-20T13:58:38.064Z,47.50
2022-09-20T14:01:06.870Z,47.12
2022-09-20T14:03:34.900Z,47.17
2022-09-20T14:06:04.438Z,47.26
2022-09-20T14:08:38.222Z,45.44
2022-09-20T14:11:08.782Z,43.83
2022-09-20T14:13:41.177Z,44.47
2022-09-20T14:16:09.096Z,44.21
2022-09-20T14:18:37.934Z,43.71
2022-09-20T14:21:06.599Z,42.21
2022-09-20T14:23:33.232Z,42.87
2022-09-20T14:26:27.780Z,42.11
2022-09-20T14:28:54.828Z,41.92
2022-09-20T14:31:23.045Z,42.68
2022-09-20T14:33:55.313Z,43.24
2022-09-20T14:36:24.746Z,43.54
2022-09-20T14:38:54.371Z,43.11
2022-09-20T14:41:35.768Z,43.81
2022-09-20T14:44:03.211Z,44.35
2022-09-20T14:46:36.064Z,43.00
2022-09-20T14:49:22.330Z,41.81
2022-09-20T14:51:49.193Z,41.97
2022-09-20T14:54:33.028Z,39.48
2022-09-20T14:56:59.701Z,38.31
2022-09-20T14:59:27.223Z,38.10
2022-09-20T15:02:14.278Z,37.06
2022-09-20T15:04:42.417Z,36.54
2022-09-20T15:07:13.248Z,35.62
2022-09-20T15:09:39.872Z,34.80
2022-09-20T15:12:12.346Z,36.10
2022-09-20T15:14:40.788Z,34.21
2022-09-20T15:17:09.633Z,34.01
2022-09-20T15:19:36.266Z,33.64
2022-09-20T15:22:02.886Z,33.74
2022-09-20T15:24:29.546Z,34.92
2022-09-20T15:26:56.225Z,35.52
2022-09-20T15:29:22.838Z,36.43
2022-09-20T15:31:49.601Z,38.08
2022-09-20T15:34:16.730Z,40.20
2022-09-20T15:36:43.718Z,39.77
2022-09-20T15:39:10.869Z,40.37
2022-09-20T15:41:38.009Z,40.86
2022-09-20T15:44:04.993Z,41.22
2022-09-20T15:46:32.285Z,41.73
2022-09-20T15:49:03.262Z,41.81
2022-09-20T15:51:33.064Z,41.33
2022-09-20T15:54:02.428Z,41.29
2022-09-20T15:56:31.184Z,41.62
2022-09-20T15:59:03.258Z,42.82
2022-09-20T16:01:33.153Z,43.50
2022-09-20T16:04:00.261Z,44.75
2022-09-20T16:06:26.944Z,44.71
2022-09-20T16:08:53.665Z,44.81
2022-09-20T16:11:22.812Z,44.69
2022-09-20T16:13:56.860Z,46.19
2022-09-20T16:16:24.879Z,45.51
2022-09-20T16:19:10.896Z,45.76
2022-09-20T16:21:39.651Z,46.10
2022-09-20T16:24:07.128Z,46.40
2022-09-20T16:26:34.735Z,45.24
2022-09-20T16:29:02.629Z,45.89
2022-09-20T16:31:43.220Z,46.18
2022-09-20T16:34:13.455Z,46.27
2022-09-20T16:36:44.214Z,46.31
2022-09-20T16:39:11.933Z,46.43
2022-09-20T16:41:39.641Z,47.86
2022-09-20T16:44:09.841Z,47.89
2022-09-20T16:46:37.456Z,48.89
2022-09-20T16:49:09.677Z,48.89
2022-09-20T16:51:37.909Z,50.06
2022-09-20T16:54:12.474Z,49.79
2022-09-20T16:56:45.109Z,50.46
2022-09-20T16:59:12.628Z,51.32
2022-09-20T17:01:40.430Z,50.48
2022-09-20T17:04:07.552Z,51.82
2022-09-20T17:06:36.213Z,52.48
2022-09-20T17:09:04.441Z,52.85
2022-09-20T17:11:34.725Z,54.46
2022-09-20T17:14:01.365Z,55.08
2022-09-20T17:16:30.645Z,55.89
2022-09-20T17:18:59.489Z,55.91
2022-09-20T17:21:27.677Z,55.93
2022-09-20T17:23:56.339Z,57.16
2022-09-20T17:26:26.843Z,57.59
2022-09-20T17:28:58.200Z,58.54
2022-09-20T17:31:33.866Z,59.04
2022-09-20T17:34:05.097Z,59.40
2022-09-20T17:36:34.220Z,58.80
2022-09-20T17:39:04.521Z,59.81
2022-09-20T17:41:32.836Z,60.09
2022-09-20T17:44:02.792Z,60.27
2022-09-20T17:46:31.842Z,61.07
2022-09-20T17:49:01.235Z,61.17
2022-09-20T17:51:32.017Z,61.51
2022-09-20T17:53:59.152Z,62.66
2022-09-20T17:56:28.815Z,62.09
2022-09-20T17:58:56.889Z,60.83
2022-09-20T18:01:23.911Z,62.06
2022-09-20T18:03:50.686Z,61.18
2022-09-20T18:06:28.696Z,61.84
2022-09-20T18:08:57.838Z,62.97
2022-09-20T18:11:34.601Z,64.22
2022-09-20T18:14:02.377Z,65.01
2022-09-20T18:16:31.004Z,65.41
2022-09-20T18:18:59.349Z,65.32
2022-09-20T18:21:27.574Z,65.51
2022-09-20T18:23:54.361Z,65.90
2022-09-20T18:26:22.886Z,66.32
2022-09-20T18:28:58.212Z,66.45
2022-09-20T18:31:32.452Z,66.95
2022-09-20T18:34:00.889Z,67.32
2022-09-20T18:36:28.973Z,68.17
2022-09-20T18:38:57.325Z,68.36
2022-09-20T18:41:28.840Z,68.21
2022-09-20T18:43:56.148Z,69.07
2022-09-20T18:46:25.021Z,69.40
2022-09-20T18:48:52.924Z,70.16
2022-09-20T18:51:20.367Z,70.43
2022-09-20T18:53:47.538Z,70.70
2022-09-20T18:56:22.814Z,70.66
2022-09-20T18:58:51.692Z,70.27
2022-09-20T19:01:51.000Z,70.62
2022-09-20T19:04:36.469Z,70.96
2022-09-20T19:07:27.382Z,71.33
2022-09-20T19:10:05.958Z,71.46
2022-09-20T19:12:48.594Z,72.96
2022-09-20T19:15:38.648Z,72.55
2022-09-20T19:18:42.366Z,72.47
2022-09-20T19:21:17.798Z,73.15
2022-09-20T19:24:03.093Z,72.78
2022-09-20T19:26:31.641Z,72.95
2022-09-20T19:29:00.160Z,72.92
2022-09-20T19:31:34.218Z,72.50
2022-09-20T19:34:06.798Z,73.23
2022-09-20T19:36:51.695Z,73.30
2022-09-20T19:39:45.029Z,73.72
2022-09-20T19:42:36.292Z,73.85
2022-09-20T19:45:22.739Z,73.09
2022-09-20T19:47:52.170Z,72.05
2022-09-20T19:50:29.922Z,71.76
2022-09-20T19:52:56.803Z,71.32
2022-09-20T19:55:23.713Z,71.28
2022-09-20T19:57:51.121Z,71.23
2022-09-20T20:00:20.366Z,71.20
2022-09-20T20:02:47.800Z,71.34
2022-09-20T20:05:17.457Z,71.27
2022-09-20T20:07:50.234Z,71.25
2022-09-20T20:10:16.800Z,70.36
2022-09-20T20:12:50.882Z,71.08
2022-09-20T20:15:29.161Z,71.32
2022-09-20T20:18:04.930Z,71.87
2022-09-20T20:20:45.896Z,72.30
2022-09-20T20:23:43.121Z,72.23
2022-09-20T20:26:16.495Z,72.00
2022-09-20T20:28:43.117Z,72.03
2022-09-20T20:31:12.587Z,72.84
2022-09-20T20:33:39.922Z,73.61
2022-09-20T20:36:09.057Z,73.35
2022-09-20T20:38:39.425Z,73.37
2022-09-20T20:41:08.810Z,72.53
2022-09-20T20:43:38.245Z,72.73
2022-09-20T20:46:07.072Z,73.42
2022-09-20T20:48:33.858Z,73.94
2022-09-20T20:51:10.210Z,74.17
2022-09-20T20:53:38.750Z,74.18
2022-09-20T20:56:08.682Z,74.10
2022-09-20T20:58:40.857Z,73.67
2022-09-20T21:01:12.697Z,73.12
2022-09-20T21:03:41.212Z,74.09
2022-09-20T21:06:08.273Z,75.17
2022-09-20T21:08:36.116Z,75.26
2022-09-20T21:11:11.570Z,75.45
2022-09-20T21:13:39.514Z,74.99
2022-09-20T21:16:09.144Z,75.67
2022-09-20T21:18:35.974Z,76.10
2022-09-20T21:21:04.337Z,76.01
2022-09-20T21:23:35.022Z,76.01
2022-09-20T21:26:07.810Z,76.34
2022-09-20T21:28:36.684Z,76.15
2022-09-20T21:31:06.598Z,76.77
2022-09-20T21:33:34.812Z,76.69
2022-09-20T21:36:02.578Z,76.55
2022-09-20T21:38:30.236Z,76.55
2022-09-20T21:41:11.835Z,76.50
2022-09-20T21:43:43.899Z,76.48
2022-09-20T21:46:12.411Z,76.61
2022-09-20T21:48:39.747Z,76.76
2022-09-20T21:51:07.537Z,77.53
2022-09-20T21:53:34.679Z,76.72
2022-09-20T21:56:03.615Z,77.16
2022-09-20T21:58:30.420Z,77.05
2022-09-20T22:01:11.839Z,77.80
2022-09-20T22:03:39.183Z,78.41
2022-09-20T22:06:07.173Z,78.09
2022-09-20T22:08:33.814Z,78.07
2022-09-20T22:11:00.462Z,78.52
2022-09-20T22:13:27.108Z,78.31
2022-09-20T22:15:53.754Z,78.37
2022-09-20T22:18:20.357Z,77.95
2022-09-20T22:20:47.251Z,77.89
2022-09-20T22:23:13.905Z,78.02
2022-09-20T22:25:40.530Z,78.94
2022-09-20T22:28:07.285Z,78.47
2022-09-20T22:30:34.013Z,79.31
2022-09-20T22:33:00.783Z,79.49
2022-09-20T22:35:27.381Z,79.26
2022-09-20T22:37:56.324Z,79.67
2022-09-20T22:40:23.037Z,79.33
2022-09-20T22:42:49.662Z,79.96
2022-09-20T22:45:16.276Z,80.06
2022-09-20T22:47:44.276Z,80.00
2022-09-20T22:50:11.062Z,79.50
2022-09-20T22:52:37.712Z,79.51
2022-09-20T22:55:04.604Z,79.43
2022-09-20T22:57:31.233Z,79.47
2022-09-20T22:59:57.824Z,79.54
2022-09-20T23:02:24.452Z,79.38
2022-09-20T23:04:51.054Z,79.52
2022-09-20T23:07:17.680Z,79.83
2022-09-20T23:09:45.552Z,79.65
2022-09-20T23:12:12.173Z,80.26
2022-09-20T23:14:38.785Z,80.33
2022-09-20T23:17:05.431Z,80.22
2022-09-20T23:19:32.038Z,80.54
2022-09-20T23:21:58.741Z,80.61
2022-09-20T23:24:25.364Z,80.83
2022-09-20T23:26:52.093Z,81.48
2022-09-20T23:29:18.748Z,81.61
2022-09-20T23:31:47.394Z,81.55
2022-09-20T23:34:15.358Z,82.00
2022-09-20T23:36:42.227Z,82.30
2022-09-20T23:39:09.828Z,83.10
2022-09-20T23:41:36.855Z,83.69
2022-09-20T23:44:06.239Z,83.73
2022-09-20T23:46:33.385Z,83.12
2022-09-20T23:49:00.347Z,82.89
2022-09-20T23:51:28.564Z,82.06
2022-09-20T23:53:55.205Z,82.35
2022-09-20T23:56:22.516Z,82.50
2022-09-20T23:58:50.239Z,82.60
